createdAt,value
2024-05-09T00:00:22.479Z,94.09
2024-05-09T00:01:19.356Z,94.09
2024-05-09T00:02:17.487Z,94.30
2024-05-09T00:03:17.303Z,94.71
2024-05-09T00:04:17.337Z,94.60
2024-05-09T00:05:17.305Z,94.55
2024-05-09T00:06:17.320Z,95.12
2024-05-09T00:07:17.244Z,95.95
2024-05-09T00:08:17.272Z,95.58
2024-05-09T00:09:17.249Z,95.78
2024-05-09T00:10:25.347Z,95.99
2024-05-09T00:11:19.300Z,95.12
2024-05-09T00:12:17.308Z,94.24
2024-05-09T00:13:17.173Z,94.13
2024-05-09T00:14:17.216Z,94.03
2024-05-09T00:15:17.244Z,94.59
2024-05-09T00:16:17.196Z,93.66
2024-05-09T00:17:17.236Z,94.08
2024-05-09T00:18:17.350Z,95.68
2024-05-09T00:19:17.281Z,95.68
2024-05-09T00:20:23.969Z,95.64
2024-05-09T00:21:19.147Z,95.58
2024-05-09T00:22:17.122Z,94.96
2024-05-09T00:23:17.090Z,94.34
2024-05-09T00:24:17.080Z,93.46
2024-05-09T00:25:17.061Z,94.28
2024-05-09T00:26:17.168Z,93.87
2024-05-09T00:27:17.041Z,93.98
2024-05-09T00:28:17.032Z,93.56
2024-05-09T00:29:17.110Z,94.90
2024-05-09T00:30:24.370Z,94.32
2024-05-09T00:31:19.033Z,94.12
2024-05-09T00:32:17.137Z,94.27
2024-05-09T00:33:17.110Z,94.47
2024-05-09T00:34:17.098Z,94.68
2024-05-09T00:35:16.989Z,94.89
2024-05-09T00:36:16.959Z,95.20
2024-05-09T00:37:16.936Z,95.05
2024-05-09T00:38:17.007Z,95.46
2024-05-09T00:39:16.934Z,94.37
2024-05-09T00:40:26.452Z,94.89
2024-05-09T00:41:19.885Z,95.34
2024-05-09T00:42:17.894Z,96.17
2024-05-09T00:43:16.889Z,95.86
2024-05-09T00:44:16.881Z,95.55
2024-05-09T00:45:16.849Z,95.34
2024-05-09T00:46:16.829Z,96.27
2024-05-09T00:47:16.934Z,96.17
2024-05-09T00:48:19.758Z,96.17
2024-05-09T00:49:16.950Z,96.21
2024-05-09T00:50:22.938Z,95.07
2024-05-09T00:51:17.844Z,95.59
2024-05-09T00:52:16.775Z,96.69
2024-05-09T00:53:16.781Z,97.26
2024-05-09T00:54:16.770Z,97.09
2024-05-09T00:55:16.750Z,97.98
2024-05-09T00:56:16.800Z,98.60
2024-05-09T00:57:16.727Z,98.44
2024-05-09T00:58:16.707Z,98.29
2024-05-09T00:59:16.786Z,98.29
2024-05-09T01:00:26.131Z,98.02
2024-05-09T01:01:18.732Z,98.02
2024-05-09T01:02:16.754Z,97.61
2024-05-09T01:03:16.916Z,98.29
2024-05-09T01:04:16.718Z,98.55
2024-05-09T01:05:16.800Z,97.56
2024-05-09T01:06:16.657Z,98.08
2024-05-09T01:07:16.607Z,98.66
2024-05-09T01:08:16.798Z,98.45
2024-05-09T01:09:16.614Z,98.24
2024-05-09T01:10:21.286Z,98.03
2024-05-09T01:11:18.728Z,97.98
2024-05-09T01:12:16.640Z,97.56
2024-05-09T01:13:16.588Z,98.08
2024-05-09T01:14:16.585Z,97.67
2024-05-09T01:15:16.549Z,97.30
2024-05-09T01:16:16.565Z,97.30
2024-05-09T01:17:16.775Z,97.82
2024-05-09T01:18:16.681Z,97.82
2024-05-09T01:19:16.649Z,98.02
2024-05-09T01:20:20.328Z,97.72
2024-05-09T01:21:18.584Z,96.58
2024-05-09T01:22:16.463Z,96.27
2024-05-09T01:23:16.837Z,95.49
2024-05-09T01:24:16.458Z,96.15
2024-05-09T01:25:16.443Z,96.62
2024-05-09T01:26:16.485Z,97.29
2024-05-09T01:27:16.438Z,96.94
2024-05-09T01:28:16.608Z,96.77
2024-05-09T01:29:16.475Z,97.86
2024-05-09T01:30:21.054Z,98.18
2024-05-09T01:31:18.364Z,98.07
2024-05-09T01:32:16.459Z,98.07
2024-05-09T01:33:16.630Z,98.28
2024-05-09T01:34:16.414Z,98.33
2024-05-09T01:35:16.510Z,98.33
2024-05-09T01:36:16.325Z,98.07
2024-05-09T01:37:16.300Z,98.75
2024-05-09T01:38:16.358Z,98.13
2024-05-09T01:39:16.321Z,97.86
2024-05-09T01:40:21.992Z,98.13
2024-05-09T01:41:17.292Z,98.49
2024-05-09T01:42:16.280Z,97.81
2024-05-09T01:43:16.272Z,97.81
2024-05-09T01:44:16.279Z,97.91
2024-05-09T01:45:16.228Z,98.22
2024-05-09T01:46:16.210Z,98.43
2024-05-09T01:47:16.332Z,98.43
2024-05-09T01:48:16.357Z,98.37
2024-05-09T01:49:16.399Z,98.27
2024-05-09T01:50:16.677Z,98.16
2024-05-09T01:51:17.297Z,98.47
2024-05-09T01:52:16.179Z,98.31
2024-05-09T01:53:16.274Z,98.31
2024-05-09T01:54:16.144Z,98.37
2024-05-09T01:55:16.130Z,98.22
2024-05-09T01:56:16.186Z,98.47
2024-05-09T01:57:16.124Z,98.06
2024-05-09T01:58:16.110Z,98.68
2024-05-09T01:59:16.132Z,98.94
2024-05-09T02:00:22.237Z,98.47
2024-05-09T02:01:17.095Z,98.68
2024-05-09T02:02:16.249Z,98.47
2024-05-09T02:03:17.681Z,97.75
2024-05-09T02:04:16.209Z,98.41
2024-05-09T02:05:16.324Z,98.41
2024-05-09T02:06:16.028Z,98.21
2024-05-09T02:07:16.032Z,98.41
2024-05-09T02:08:16.156Z,99.04
2024-05-09T02:09:15.978Z,98.72
2024-05-09T02:10:20.491Z,98.41
2024-05-09T02:11:18.011Z,98.25
2024-05-09T02:12:16.094Z,98.35
2024-05-09T02:13:16.351Z,98.77
2024-05-09T02:14:15.961Z,99.65
2024-05-09T02:15:15.903Z,99.44
2024-05-09T02:16:15.907Z,99.99
2024-05-09T02:17:16.055Z,99.99
2024-05-09T02:18:16.005Z,99.99
2024-05-09T02:19:16.020Z,99.96
2024-05-09T02:20:22.626Z,99.96
2024-05-09T02:21:17.882Z,99.99
2024-05-09T02:22:15.848Z,99.99
2024-05-09T02:23:15.843Z,99.99
2024-05-09T02:24:15.803Z,99.99
2024-05-09T02:25:15.785Z,99.99
2024-05-09T02:26:15.890Z,99.99
2024-05-09T02:27:15.799Z,99.99
2024-05-09T02:28:15.746Z,99.99
2024-05-09T02:29:15.803Z,99.44
2024-05-09T02:30:22.831Z,99.44
2024-05-09T02:31:16.751Z,99.99
2024-05-09T02:32:15.751Z,99.99
2024-05-09T02:33:15.819Z,99.99
2024-05-09T02:34:15.767Z,99.99
2024-05-09T02:35:15.722Z,99.99
2024-05-09T02:36:15.671Z,99.99
2024-05-09T02:37:15.649Z,99.99
2024-05-09T02:38:15.707Z,99.99
2024-05-09T02:39:15.658Z,99.99
2024-05-09T02:40:21.628Z,99.99
2024-05-09T02:41:16.676Z,99.99
2024-05-09T02:42:15.614Z,99.99
2024-05-09T02:43:15.641Z,99.99
2024-05-09T02:44:15.633Z,99.99
2024-05-09T02:45:15.577Z,99.99
2024-05-09T02:46:15.560Z,99.99
2024-05-09T02:47:16.667Z,99.99
2024-05-09T02:48:15.632Z,99.99
2024-05-09T02:49:15.800Z,99.43
2024-05-09T02:50:23.011Z,99.74
2024-05-09T02:51:17.539Z,99.54
2024-05-09T02:52:15.484Z,98.03
2024-05-09T02:53:15.571Z,98.60
2024-05-09T02:54:15.474Z,98.91
2024-05-09T02:55:15.489Z,99.27
2024-05-09T02:56:15.542Z,99.33
2024-05-09T02:57:15.470Z,99.07
2024-05-09T02:58:15.432Z,98.96
2024-05-09T02:59:15.484Z,99.99
2024-05-09T03:00:22.530Z,99.99
2024-05-09T03:01:17.478Z,99.99
2024-05-09T03:02:15.464Z,99.99
2024-05-09T03:03:15.974Z,99.99
2024-05-09T03:04:15.403Z,99.99
2024-05-09T03:05:15.431Z,99.99
2024-05-09T03:06:15.382Z,99.99
2024-05-09T03:07:15.372Z,99.99
2024-05-09T03:08:15.481Z,99.99
2024-05-09T03:09:15.344Z,99.99
2024-05-09T03:10:22.231Z,99.99
2024-05-09T03:11:16.392Z,99.99
2024-05-09T03:12:15.307Z,99.99
2024-05-09T03:13:16.313Z,99.99
2024-05-09T03:14:15.312Z,99.99
2024-05-09T03:15:15.281Z,99.99
2024-05-09T03:16:15.274Z,99.99
2024-05-09T03:17:15.275Z,99.99
2024-05-09T03:18:15.609Z,99.99
2024-05-09T03:19:15.293Z,99.99
2024-05-09T03:20:20.704Z,99.99
2024-05-09T03:21:16.290Z,99.99
2024-05-09T03:22:15.207Z,99.99
2024-05-09T03:23:15.258Z,99.99
2024-05-09T03:24:15.189Z,99.99
2024-05-09T03:25:15.164Z,99.99
2024-05-09T03:26:15.209Z,99.99
2024-05-09T03:27:15.199Z,99.99
2024-05-09T03:28:15.159Z,99.99
2024-05-09T03:29:15.251Z,99.99
2024-05-09T03:30:28.779Z,99.99
2024-05-09T03:31:17.174Z,99.99
2024-05-09T03:32:15.131Z,99.99
2024-05-09T03:33:15.972Z,99.99
2024-05-09T03:34:15.090Z,99.99
2024-05-09T03:35:15.146Z,99.99
2024-05-09T03:36:15.112Z,99.99
2024-05-09T03:37:15.069Z,99.99
2024-05-09T03:38:15.426Z,99.99
2024-05-09T03:39:15.025Z,99.99
2024-05-09T03:40:20.856Z,99.99
2024-05-09T03:41:16.024Z,99.99
2024-05-09T03:42:14.976Z,99.99
2024-05-09T03:43:14.992Z,99.99
2024-05-09T03:44:15.026Z,99.99
2024-05-09T03:45:14.938Z,99.99
2024-05-09T03:46:14.978Z,99.99
2024-05-09T03:47:15.078Z,99.99
2024-05-09T03:48:15.110Z,99.99
2024-05-09T03:49:15.033Z,99.99
2024-05-09T03:50:22.043Z,99.99
2024-05-09T03:51:16.962Z,99.99
2024-05-09T03:52:14.881Z,99.99
2024-05-09T03:53:15.063Z,99.99
2024-05-09T03:54:14.867Z,99.99
2024-05-09T03:55:14.844Z,99.99
2024-05-09T03:56:14.927Z,99.99
2024-05-09T03:57:14.837Z,99.99
2024-05-09T03:58:14.828Z,99.99
2024-05-09T03:59:14.847Z,99.99
2024-05-09T04:00:21.927Z,99.99
2024-05-09T04:01:16.791Z,99.99
2024-05-09T04:02:14.957Z,99.99
2024-05-09T04:03:15.042Z,99.99
2024-05-09T04:04:14.876Z,99.99
2024-05-09T04:05:14.746Z,99.99
2024-05-09T04:06:14.756Z,99.99
2024-05-09T04:07:14.712Z,99.99
2024-05-09T04:08:15.147Z,99.99
2024-05-09T04:09:14.693Z,99.99
2024-05-09T04:10:23.676Z,99.99
2024-05-09T04:11:16.748Z,99.99
2024-05-09T04:12:14.784Z,99.99
2024-05-09T04:13:14.650Z,99.99
2024-05-09T04:14:14.698Z,99.99
2024-05-09T04:15:14.643Z,99.99
2024-05-09T04:16:47.098Z,99.99
2024-05-09T04:17:14.673Z,99.99
2024-05-09T04:18:14.674Z,99.99
2024-05-09T04:19:14.944Z,99.99
2024-05-09T04:20:24.278Z,99.99
2024-05-09T04:21:16.618Z,99.99
2024-05-09T04:22:15.558Z,99.99
2024-05-09T04:23:14.965Z,99.99
2024-05-09T04:24:14.578Z,99.99
2024-05-09T04:25:14.526Z,99.99
2024-05-09T04:26:14.582Z,99.99
2024-05-09T04:27:14.529Z,99.99
2024-05-09T04:28:14.597Z,99.99
2024-05-09T04:29:14.515Z,99.99
2024-05-09T04:30:21.731Z,99.99
2024-05-09T04:31:16.488Z,99.99
2024-05-09T04:32:14.548Z,99.99
2024-05-09T04:33:15.227Z,99.99
2024-05-09T04:34:14.692Z,99.99
2024-05-09T04:35:14.510Z,99.99
2024-05-09T04:36:14.432Z,99.99
2024-05-09T04:37:14.429Z,99.99
2024-05-09T04:38:15.188Z,99.99
2024-05-09T04:39:14.412Z,99.99
2024-05-09T04:40:23.965Z,99.99
2024-05-09T04:41:16.414Z,99.99
2024-05-09T04:42:14.397Z,99.99
2024-05-09T04:43:14.429Z,99.99
2024-05-09T04:44:14.351Z,99.99
2024-05-09T04:45:14.335Z,99.99
2024-05-09T04:46:14.342Z,99.99
2024-05-09T04:47:14.389Z,99.99
2024-05-09T04:48:14.592Z,99.99
2024-05-09T04:49:14.626Z,99.99
2024-05-09T04:50:21.188Z,99.99
2024-05-09T04:51:16.352Z,99.99
2024-05-09T04:52:14.278Z,99.99
2024-05-09T04:53:14.297Z,99.99
2024-05-09T04:54:26.019Z,99.99
2024-05-09T04:55:16.231Z,99.99
2024-05-09T04:56:14.350Z,99.99
2024-05-09T04:57:14.220Z,99.99
2024-05-09T04:58:14.196Z,99.99
2024-05-09T04:59:14.305Z,99.99
2024-05-09T05:00:18.067Z,99.99
2024-05-09T05:01:16.276Z,99.99
2024-05-09T05:02:14.311Z,99.99
2024-05-09T05:03:15.915Z,99.99
2024-05-09T05:04:14.217Z,99.99
2024-05-09T05:05:14.272Z,99.99
2024-05-09T05:06:14.115Z,99.99
2024-05-09T05:07:14.106Z,99.99
2024-05-09T05:08:14.566Z,99.99
2024-05-09T05:09:14.067Z,99.99
2024-05-09T05:10:21.418Z,99.99
2024-05-09T05:11:16.168Z,99.99
2024-05-09T05:12:14.145Z,99.99
2024-05-09T05:13:14.054Z,99.99
2024-05-09T05:14:14.102Z,99.99
2024-05-09T05:15:14.022Z,99.99
2024-05-09T05:16:14.017Z,99.99
2024-05-09T05:17:14.065Z,99.99
2024-05-09T05:18:15.143Z,99.99
2024-05-09T05:19:16.967Z,99.99
2024-05-09T05:20:18.051Z,99.99
2024-05-09T05:21:16.020Z,99.99
2024-05-09T05:22:13.954Z,99.93
2024-05-09T05:23:14.278Z,99.51
2024-05-09T05:24:13.967Z,99.82
2024-05-09T05:25:13.922Z,98.28
2024-05-09T05:26:14.010Z,98.28
2024-05-09T05:27:13.912Z,98.13
2024-05-09T05:28:13.897Z,97.92
2024-05-09T05:29:14.403Z,98.50
2024-05-09T05:30:21.129Z,98.08
2024-05-09T05:31:15.862Z,97.78
2024-05-09T05:32:14.138Z,97.73
2024-05-09T05:33:14.101Z,97.53
2024-05-09T05:34:13.932Z,97.63
2024-05-09T05:35:13.915Z,97.32
2024-05-09T05:36:13.828Z,97.12
2024-05-09T05:37:13.788Z,97.02
2024-05-09T05:38:13.820Z,96.70
2024-05-09T05:39:13.817Z,95.84
2024-05-09T05:40:24.609Z,93.68
2024-05-09T05:41:15.823Z,94.20
2024-05-09T05:42:13.749Z,93.48
2024-05-09T05:43:13.714Z,93.54
2024-05-09T05:44:13.766Z,93.33
2024-05-09T05:45:13.703Z,93.39
2024-05-09T05:46:13.704Z,92.06
2024-05-09T05:47:13.807Z,92.06
2024-05-09T05:48:14.067Z,92.06
2024-05-09T05:49:13.843Z,91.91
2024-05-09T05:50:23.788Z,90.99
2024-05-09T05:51:15.853Z,90.28
2024-05-09T05:52:13.647Z,90.07
2024-05-09T05:53:13.796Z,90.07
2024-05-09T05:54:13.633Z,89.97
2024-05-09T05:55:13.624Z,89.66
2024-05-09T05:56:13.673Z,89.87
2024-05-09T05:57:13.591Z,90.79
2024-05-09T05:58:13.564Z,90.99
2024-05-09T05:59:15.145Z,91.71
2024-05-09T06:01:14.601Z,91.61
2024-05-09T06:02:13.830Z,92.02
2024-05-09T06:03:14.286Z,91.82
2024-05-09T06:04:13.657Z,92.53
2024-05-09T06:05:13.591Z,92.32
2024-05-09T06:06:13.656Z,91.87
2024-05-09T06:07:13.507Z,91.56
2024-05-09T06:08:13.530Z,91.36
2024-05-09T06:09:13.481Z,90.44
2024-05-09T06:10:20.963Z,90.75
2024-05-09T06:11:15.505Z,90.91
2024-05-09T06:12:13.516Z,90.54
2024-05-09T06:13:14.258Z,91.05
2024-05-09T06:14:13.566Z,90.34
2024-05-09T06:15:13.415Z,90.81
2024-05-09T06:16:13.399Z,90.60
2024-05-09T06:17:13.555Z,90.50
2024-05-09T06:18:13.597Z,90.66
2024-05-09T06:19:13.555Z,90.66
2024-05-09T06:20:20.473Z,90.45
2024-05-09T06:21:15.473Z,90.77
2024-05-09T06:22:13.328Z,89.70
2024-05-09T06:23:13.649Z,90.77
2024-05-09T06:24:13.327Z,90.05
2024-05-09T06:25:13.312Z,89.59
2024-05-09T06:26:13.363Z,89.39
2024-05-09T06:27:13.294Z,89.50
2024-05-09T06:28:13.257Z,89.39
2024-05-09T06:29:13.258Z,89.80
2024-05-09T06:30:24.810Z,89.70
2024-05-09T06:31:15.263Z,90.77
2024-05-09T06:32:13.244Z,90.72
2024-05-09T06:33:15.427Z,90.58
2024-05-09T06:34:13.264Z,89.25
2024-05-09T06:35:13.248Z,88.94
2024-05-09T06:36:13.227Z,88.94
2024-05-09T06:37:13.199Z,88.90
2024-05-09T06:38:13.395Z,87.98
2024-05-09T06:39:13.146Z,87.84
2024-05-09T06:40:17.386Z,87.84
2024-05-09T06:41:13.143Z,86.77
2024-05-09T06:42:13.101Z,86.16
2024-05-09T06:43:13.306Z,86.36
2024-05-09T06:44:13.190Z,86.47
2024-05-09T06:45:13.084Z,85.71
2024-05-09T06:46:13.082Z,85.10
2024-05-09T06:47:13.113Z,84.75
2024-05-09T06:48:13.266Z,84.75
2024-05-09T06:49:13.113Z,83.29
2024-05-09T06:50:22.928Z,83.09
2024-05-09T06:51:14.190Z,82.88
2024-05-09T06:52:13.018Z,82.84
2024-05-09T06:53:13.037Z,82.60
2024-05-09T06:54:12.975Z,82.09
2024-05-09T06:55:12.998Z,82.19
2024-05-09T06:56:13.004Z,82.05
2024-05-09T06:57:12.934Z,82.50
2024-05-09T06:58:13.009Z,82.90
2024-05-09T06:59:12.958Z,83.11
2024-05-09T07:00:19.109Z,83.04
2024-05-09T07:01:14.951Z,83.15
2024-05-09T07:02:12.946Z,83.59
2024-05-09T07:03:14.866Z,83.49
2024-05-09T07:04:13.056Z,83.59
2024-05-09T07:05:13.010Z,83.56
2024-05-09T07:06:12.898Z,83.45
2024-05-09T07:07:12.847Z,83.01
2024-05-09T07:08:13.037Z,82.09
2024-05-09T07:09:12.833Z,82.46
2024-05-09T07:10:18.075Z,82.26
2024-05-09T07:11:14.871Z,82.01
2024-05-09T07:12:12.859Z,81.26
2024-05-09T07:13:12.869Z,81.16
2024-05-09T07:14:12.807Z,80.24
2024-05-09T07:15:12.765Z,79.70
2024-05-09T07:16:12.763Z,79.29
2024-05-09T07:17:12.804Z,79.50
2024-05-09T07:18:13.246Z,79.05
2024-05-09T07:19:12.943Z,78.55
2024-05-09T07:20:22.980Z,79.50
2024-05-09T07:21:14.776Z,79.02
2024-05-09T07:22:12.664Z,80.24
2024-05-09T07:23:12.911Z,80.59
2024-05-09T07:24:12.652Z,81.10
2024-05-09T07:25:12.705Z,81.10
2024-05-09T07:26:12.695Z,81.20
2024-05-09T07:27:12.622Z,81.10
2024-05-09T07:28:12.604Z,81.06
2024-05-09T07:29:12.648Z,81.26
2024-05-09T07:30:16.695Z,81.16
2024-05-09T07:31:13.582Z,81.06
2024-05-09T07:32:12.635Z,81.16
2024-05-09T07:33:12.655Z,81.06
2024-05-09T07:34:12.752Z,81.23
2024-05-09T07:35:12.564Z,81.12
2024-05-09T07:36:12.514Z,80.92
2024-05-09T07:37:12.530Z,80.51
2024-05-09T07:38:12.498Z,81.29
2024-05-09T07:39:12.494Z,81.09
2024-05-09T07:40:21.218Z,79.36
2024-05-09T07:41:13.877Z,79.02
2024-05-09T07:42:12.439Z,78.10
2024-05-09T07:43:12.422Z,77.15
2024-05-09T07:44:12.446Z,77.15
2024-05-09T07:45:29.812Z,76.98
2024-05-09T07:48:28.053Z,77.90
2024-05-09T07:49:45.013Z,79.32
2024-05-09T07:53:29.320Z,79.69
2024-05-09T07:53:37.582Z,78.27
2024-05-09T07:54:14.471Z,78.88
2024-05-09T07:55:12.437Z,78.57
2024-05-09T07:56:12.748Z,78.37
2024-05-09T07:57:12.313Z,77.45
2024-05-09T07:58:12.319Z,78.33
2024-05-09T07:59:12.308Z,77.32
2024-05-09T08:00:17.207Z,76.51
2024-05-09T08:01:13.379Z,74.95
2024-05-09T08:02:12.318Z,75.19
2024-05-09T08:03:12.299Z,74.65
2024-05-09T08:04:12.318Z,76.57
2024-05-09T08:05:12.448Z,76.98
2024-05-09T08:06:12.229Z,76.43
2024-05-09T08:07:12.258Z,74.77
2024-05-09T08:08:12.161Z,74.77
2024-05-09T08:09:16.967Z,73.83
2024-05-09T08:10:18.734Z,73.49
2024-05-09T08:11:13.183Z,73.59
2024-05-09T08:12:12.161Z,73.73
2024-05-09T08:13:12.283Z,73.12
2024-05-09T08:14:12.108Z,72.92
2024-05-09T08:15:12.102Z,73.93
2024-05-09T08:16:12.122Z,73.53
2024-05-09T08:17:12.144Z,73.19
2024-05-09T08:18:12.228Z,72.78
2024-05-09T08:19:12.255Z,72.65
2024-05-09T08:20:18.716Z,71.80
2024-05-09T08:21:13.035Z,71.00
2024-05-09T08:22:12.069Z,71.40
2024-05-09T08:23:12.046Z,71.77
2024-05-09T08:24:12.013Z,72.55
2024-05-09T08:25:13.977Z,72.44
2024-05-09T08:26:13.004Z,70.49
2024-05-09T08:27:11.953Z,69.68
2024-05-09T08:28:12.205Z,68.33
2024-05-09T08:29:12.020Z,68.44
2024-05-09T08:30:19.012Z,68.64
2024-05-09T08:31:13.988Z,67.83
2024-05-09T08:32:11.944Z,68.64
2024-05-09T08:33:11.940Z,67.90
2024-05-09T08:34:12.053Z,67.97
2024-05-09T08:35:11.895Z,67.33
2024-05-09T08:36:11.977Z,66.63
2024-05-09T08:37:19.414Z,67.54
2024-05-09T08:38:13.895Z,67.91
2024-05-09T08:39:11.868Z,66.70
2024-05-09T08:40:23.445Z,64.05
2024-05-09T08:41:13.802Z,62.04
2024-05-09T08:42:11.805Z,61.90
2024-05-09T08:43:12.992Z,62.18
2024-05-09T08:44:11.778Z,61.67
2024-05-09T08:45:11.793Z,61.74
2024-05-09T08:46:11.850Z,59.23
2024-05-09T08:47:11.803Z,59.16
2024-05-09T08:48:11.872Z,58.40
2024-05-09T08:49:11.948Z,58.50
2024-05-09T08:50:24.047Z,55.55
2024-05-09T08:51:13.708Z,54.08
2024-05-09T08:52:11.821Z,54.20
2024-05-09T08:53:11.696Z,53.57
2024-05-09T08:54:11.686Z,54.00
2024-05-09T08:55:11.687Z,53.60
2024-05-09T08:56:11.824Z,53.20
2024-05-09T08:57:11.643Z,53.42
2024-05-09T08:58:11.888Z,54.86
2024-05-09T08:59:11.639Z,55.87
2024-05-09T09:00:15.097Z,56.04
2024-05-09T09:01:13.754Z,54.71
2024-05-09T09:02:11.726Z,55.13
2024-05-09T09:03:11.682Z,54.71
2024-05-09T09:04:12.892Z,55.21
2024-05-09T09:05:12.688Z,55.18
2024-05-09T09:06:11.680Z,51.11
2024-05-09T09:07:11.597Z,51.99
2024-05-09T09:08:11.560Z,53.50
2024-05-09T09:09:11.543Z,54.98
2024-05-09T09:10:17.595Z,52.74
2024-05-09T09:11:12.596Z,51.72
2024-05-09T09:12:11.538Z,49.98
2024-05-09T09:13:11.675Z,49.51
2024-05-09T09:14:11.474Z,49.48
2024-05-09T09:15:11.467Z,48.98
2024-05-09T09:16:11.550Z,47.53
2024-05-09T09:17:11.531Z,48.53
2024-05-09T09:18:12.428Z,48.51
2024-05-09T09:19:12.654Z,48.01
2024-05-09T09:20:16.431Z,48.38
2024-05-09T09:21:13.422Z,48.61
2024-05-09T09:22:11.516Z,47.20
2024-05-09T09:23:11.383Z,45.12
2024-05-09T09:24:11.391Z,46.85
2024-05-09T09:25:11.424Z,48.73
2024-05-09T09:26:11.349Z,48.58
2024-05-09T09:27:11.360Z,49.91
2024-05-09T09:28:11.382Z,49.73
2024-05-09T09:29:11.337Z,50.41
2024-05-09T09:30:26.894Z,50.48
2024-05-09T09:31:13.396Z,50.09
2024-05-09T09:32:11.284Z,49.53
2024-05-09T09:33:11.786Z,48.93
2024-05-09T09:34:11.502Z,50.71
2024-05-09T09:35:11.264Z,48.90
2024-05-09T09:36:11.726Z,49.48
2024-05-09T09:37:12.380Z,49.68
2024-05-09T09:38:11.317Z,47.96
2024-05-09T09:39:11.216Z,48.66
2024-05-09T09:40:13.177Z,49.43
2024-05-09T09:41:11.275Z,49.54
2024-05-09T09:42:11.176Z,49.61
2024-05-09T09:43:11.382Z,50.16
2024-05-09T09:44:11.191Z,49.30
2024-05-09T09:45:11.149Z,48.98
2024-05-09T09:46:12.761Z,48.35
2024-05-09T09:47:11.154Z,47.97
2024-05-09T09:48:11.235Z,50.29
2024-05-09T09:49:11.305Z,50.54
2024-05-09T09:50:14.499Z,49.21
2024-05-09T09:51:13.079Z,47.88
2024-05-09T09:52:11.457Z,48.49
2024-05-09T09:53:12.063Z,47.99
2024-05-09T09:54:11.133Z,47.46
2024-05-09T09:55:11.204Z,48.57
2024-05-09T09:56:11.099Z,47.04
2024-05-09T09:57:11.039Z,45.64
2024-05-09T09:58:13.497Z,46.54
2024-05-09T09:59:11.062Z,47.14
2024-05-09T10:00:11.988Z,46.51
2024-05-09T10:01:13.102Z,45.72
2024-05-09T10:02:11.244Z,45.39
2024-05-09T10:03:11.013Z,45.27
2024-05-09T10:04:11.035Z,44.67
2024-05-09T10:05:11.151Z,42.55
2024-05-09T10:06:11.946Z,42.93
2024-05-09T10:07:11.049Z,44.03
2024-05-09T10:08:10.931Z,43.01
2024-05-09T10:09:10.919Z,42.21
2024-05-09T10:10:14.022Z,41.09
2024-05-09T10:11:12.937Z,40.89
2024-05-09T10:12:11.047Z,41.60
2024-05-09T10:13:10.934Z,41.69
2024-05-09T10:14:10.880Z,42.79
2024-05-09T10:15:10.847Z,42.10
2024-05-09T10:16:10.985Z,42.11
2024-05-09T10:17:10.875Z,42.10
2024-05-09T10:18:10.922Z,41.39
2024-05-09T10:19:10.890Z,40.89
2024-05-09T10:20:18.323Z,40.78
2024-05-09T10:21:12.827Z,41.16
2024-05-09T10:22:10.794Z,41.25
2024-05-09T10:23:10.756Z,40.36
2024-05-09T10:24:10.753Z,41.14
2024-05-09T10:25:10.850Z,40.74
2024-05-09T10:26:10.778Z,40.12
2024-05-09T10:27:10.781Z,39.76
2024-05-09T10:28:10.786Z,40.78
2024-05-09T10:29:10.673Z,40.89
2024-05-09T10:30:17.681Z,40.88
2024-05-09T10:31:12.713Z,40.56
2024-05-09T10:32:10.661Z,40.94
2024-05-09T10:33:10.806Z,40.02
2024-05-09T10:34:10.867Z,39.72
2024-05-09T10:35:10.733Z,40.52
2024-05-09T10:36:10.634Z,40.94
2024-05-09T10:37:10.695Z,41.36
2024-05-09T10:38:10.590Z,40.46
2024-05-09T10:39:10.606Z,40.94
2024-05-09T10:40:17.251Z,40.84
2024-05-09T10:41:12.551Z,41.75
2024-05-09T10:42:10.561Z,42.35
2024-05-09T10:43:10.563Z,41.25
2024-05-09T10:44:10.564Z,41.16
2024-05-09T10:45:10.523Z,40.92
2024-05-09T10:46:10.872Z,41.14
2024-05-09T10:47:10.546Z,41.96
2024-05-09T10:48:10.610Z,42.43
2024-05-09T10:49:10.561Z,40.94
2024-05-09T10:50:18.480Z,41.09
2024-05-09T10:51:12.495Z,40.48
2024-05-09T10:52:10.548Z,40.84
2024-05-09T10:53:10.440Z,39.83
2024-05-09T10:54:10.418Z,40.24
2024-05-09T10:55:10.557Z,39.48
2024-05-09T10:56:10.507Z,40.60
2024-05-09T10:57:10.433Z,40.62
2024-05-09T10:58:10.507Z,41.19
2024-05-09T10:59:10.431Z,40.88
2024-05-09T11:00:18.886Z,41.77
2024-05-09T11:01:12.495Z,41.69
2024-05-09T11:02:10.503Z,41.97
2024-05-09T11:03:10.338Z,43.95
2024-05-09T11:04:10.516Z,43.65
2024-05-09T11:05:10.456Z,45.52
2024-05-09T11:06:10.318Z,43.55
2024-05-09T11:07:10.392Z,42.89
2024-05-09T11:08:10.297Z,43.09
2024-05-09T11:09:10.371Z,44.79
2024-05-09T11:10:14.502Z,43.77
2024-05-09T11:11:11.295Z,45.64
2024-05-09T11:12:10.411Z,42.93
2024-05-09T11:13:10.345Z,42.23
2024-05-09T11:14:10.222Z,43.11
2024-05-09T11:15:10.358Z,42.39
2024-05-09T11:16:10.295Z,41.60
2024-05-09T11:17:10.271Z,41.89
2024-05-09T11:18:10.328Z,39.80
2024-05-09T11:19:10.363Z,38.77
2024-05-09T11:20:16.747Z,40.58
2024-05-09T11:21:12.395Z,42.49
2024-05-09T11:22:10.233Z,43.08
2024-05-09T11:23:10.164Z,41.22
2024-05-09T11:24:11.551Z,40.92
2024-05-09T11:25:11.230Z,41.39
2024-05-09T11:26:10.147Z,42.19
2024-05-09T11:27:10.168Z,40.80
2024-05-09T11:28:10.292Z,40.56
2024-05-09T11:29:10.174Z,39.43
2024-05-09T11:30:17.227Z,38.70
2024-05-09T11:31:12.064Z,38.79
2024-05-09T11:32:10.101Z,38.98
2024-05-09T11:33:10.184Z,39.61
2024-05-09T11:34:10.115Z,39.11
2024-05-09T11:35:10.064Z,38.79
2024-05-09T11:36:10.095Z,38.76
2024-05-09T11:37:10.038Z,42.01
2024-05-09T11:38:09.991Z,41.14
2024-05-09T11:39:10.036Z,40.64
2024-05-09T11:40:16.807Z,40.92
2024-05-09T11:41:11.955Z,41.75
2024-05-09T11:42:09.951Z,42.57
2024-05-09T11:43:10.102Z,44.37
2024-05-09T11:44:09.935Z,44.63
2024-05-09T11:45:09.934Z,45.65
2024-05-09T11:46:09.991Z,45.55
2024-05-09T11:47:09.922Z,46.07
2024-05-09T11:48:09.999Z,45.89
2024-05-09T11:49:10.109Z,45.89
2024-05-09T11:50:16.012Z,46.87
2024-05-09T11:51:11.881Z,46.37
2024-05-09T11:52:09.914Z,46.80
2024-05-09T11:53:09.843Z,46.39
2024-05-09T11:54:09.873Z,45.31
2024-05-09T11:55:09.918Z,45.36
2024-05-09T11:56:09.826Z,44.27
2024-05-09T11:57:09.877Z,44.65
2024-05-09T11:58:09.874Z,42.67
2024-05-09T11:59:09.771Z,41.30
2024-05-09T12:00:14.779Z,39.17
2024-05-09T12:01:10.865Z,38.71
2024-05-09T12:02:10.046Z,39.28
2024-05-09T12:03:09.839Z,37.85
2024-05-09T12:04:09.988Z,39.49
2024-05-09T12:05:09.998Z,39.45
2024-05-09T12:06:09.776Z,40.74
2024-05-09T12:07:12.765Z,40.94
2024-05-09T12:08:10.768Z,41.39
2024-05-09T12:09:09.771Z,42.19
2024-05-09T12:10:16.500Z,42.19
2024-05-09T12:11:11.715Z,41.38
2024-05-09T12:12:09.710Z,40.88
2024-05-09T12:13:09.652Z,42.53
2024-05-09T12:14:10.640Z,44.79
2024-05-09T12:15:09.650Z,46.43
2024-05-09T12:16:09.730Z,46.73
2024-05-09T12:17:09.606Z,47.20
2024-05-09T12:18:09.661Z,46.50
2024-05-09T12:19:09.934Z,47.22
2024-05-09T12:20:17.492Z,46.62
2024-05-09T12:21:11.604Z,44.79
2024-05-09T12:22:09.911Z,43.13
2024-05-09T12:23:10.499Z,42.09
2024-05-09T12:24:09.575Z,40.86
2024-05-09T12:25:09.631Z,40.46
2024-05-09T12:26:09.534Z,41.83
2024-05-09T12:27:09.503Z,39.69
2024-05-09T12:28:09.611Z,39.89
2024-05-09T12:29:09.456Z,42.09
2024-05-09T12:30:14.135Z,39.33
2024-05-09T12:31:10.555Z,37.84
2024-05-09T12:32:09.569Z,38.14
2024-05-09T12:33:09.878Z,38.22
2024-05-09T12:34:09.553Z,38.20
2024-05-09T12:35:09.455Z,39.11
2024-05-09T12:36:09.427Z,38.30
2024-05-09T12:37:09.488Z,38.98
2024-05-09T12:38:09.384Z,38.93
2024-05-09T12:39:09.436Z,39.95
2024-05-09T12:40:18.466Z,41.25
2024-05-09T12:41:11.371Z,40.74
2024-05-09T12:42:11.022Z,40.64
2024-05-09T12:43:10.485Z,39.84
2024-05-09T12:44:09.349Z,37.98
2024-05-09T12:45:09.325Z,38.29
2024-05-09T12:46:09.473Z,39.18
2024-05-09T12:47:10.316Z,38.71
2024-05-09T12:48:09.416Z,39.40
2024-05-09T12:49:09.606Z,38.09
2024-05-09T12:50:18.886Z,38.87
2024-05-09T12:51:10.378Z,38.87
2024-05-09T12:52:09.519Z,38.65
2024-05-09T12:53:09.259Z,38.57
2024-05-09T12:54:09.212Z,38.61
2024-05-09T12:55:09.340Z,38.79
2024-05-09T12:56:09.610Z,38.97
2024-05-09T12:57:10.219Z,38.60